createdAt,value
2018-09-01T00:00:55.072Z,93
2018-09-01T00:06:23.597Z,93
2018-09-01T00:17:21.646Z,93
2018-09-01T00:22:51.260Z,93
2018-09-01T00:28:24.934Z,93
2018-09-01T00:33:48.127Z,93
2018-09-01T00:39:16.682Z,93
2018-09-01T00:44:46.095Z,93
2018-09-01T00:50:15.870Z,93
2018-09-01T00:55:45.037Z,93
2018-09-01T01:01:13.752Z,93
2018-09-01T01:06:43.243Z,93
2018-09-01T01:12:11.414Z,93
2018-09-01T01:17:40.881Z,93
2018-09-01T01:23:14.357Z,93
2018-09-01T01:28:43.075Z,93
2018-09-01T01:34:11.257Z,94
2018-09-01T01:39:40.111Z,94
2018-09-01T01:45:03.153Z,94
2018-09-01T01:50:31.847Z,94
2018-09-01T01:56:01.313Z,94
2018-09-01T02:01:30.519Z,94
2018-09-01T02:06:59.961Z,94
2018-09-01T02:12:28.441Z,94
2018-09-01T02:17:57.440Z,94
2018-09-01T02:23:31.448Z,94
2018-09-01T02:28:55.864Z,94
2018-09-01T02:34:24.297Z,94
2018-09-01T02:39:57.784Z,94
2018-09-01T02:45:21.436Z,94
2018-09-01T02:50:55.633Z,94
2018-09-01T02:56:20.290Z,94
2018-09-01T03:01:49.748Z,95
2018-09-01T03:07:17.886Z,95
2018-09-01T03:12:52.290Z,95
2018-09-01T03:18:15.704Z,95
2018-09-01T03:18:17.630Z,95
2018-09-01T03:23:50.560Z,95
2018-09-01T03:29:13.542Z,94
2018-09-01T03:34:46.972Z,94
2018-09-01T03:40:10.359Z,94
2018-09-01T03:45:38.802Z,95
2018-09-01T03:51:08.486Z,95
2018-09-01T03:56:37.509Z,95
2018-09-01T04:02:05.913Z,95
2018-09-01T04:07:34.309Z,95
2018-09-01T04:13:03.668Z,95
2018-09-01T04:18:33.007Z,95
2018-09-01T04:24:06.351Z,95
2018-09-01T04:29:29.686Z,95
2018-09-01T04:35:04.083Z,95
2018-09-01T04:40:27.635Z,95
2018-09-01T04:45:55.770Z,95
2018-09-01T04:51:24.327Z,96
2018-09-01T04:56:57.399Z,96
2018-09-01T05:02:26.019Z,95
2018-09-01T05:07:50.031Z,95
2018-09-01T05:13:24.515Z,95
2018-09-01T05:18:47.684Z,95
2018-09-01T05:24:16.313Z,95
2018-09-01T05:29:50.749Z,96
2018-09-01T05:35:18.828Z,96
2018-09-01T05:40:43.275Z,96
2018-09-01T05:46:16.489Z,96
2018-09-01T05:51:39.946Z,95
2018-09-01T05:57:13.026Z,96
2018-09-01T06:02:41.913Z,95
2018-09-01T06:08:04.746Z,95
2018-09-01T06:13:38.725Z,95
2018-09-01T06:19:06.891Z,94
2018-09-01T06:24:31.171Z,94
2018-09-01T06:30:00.589Z,94
2018-09-01T06:35:29.299Z,95
2018-09-01T06:41:02.564Z,95
2018-09-01T06:46:32.318Z,95
2018-09-01T06:51:56.563Z,95
2018-09-01T06:57:26.037Z,95
2018-09-01T07:02:55.567Z,94
2018-09-01T07:13:53.922Z,95
2018-09-01T07:19:23.210Z,95
2018-09-01T07:24:52.887Z,95
2018-09-01T07:30:26.854Z,95
2018-09-01T07:35:50.974Z,95
2018-09-01T07:41:20.532Z,95
2018-09-01T07:46:49.109Z,95
2018-09-01T07:52:22.987Z,95
2018-09-01T07:57:47.922Z,95
2018-09-01T08:03:15.917Z,95
2018-09-01T08:08:44.795Z,95
2018-09-01T08:14:18.509Z,95
2018-09-01T08:19:42.014Z,95
2018-09-01T08:25:10.400Z,95
2018-09-01T08:30:39.982Z,95
2018-09-01T08:30:40.387Z,95
2018-09-01T08:36:13.555Z,95
2018-09-01T08:36:14.602Z,95
2018-09-01T08:41:43.498Z,95
2018-09-01T08:47:11.886Z,95
2018-09-01T08:52:41.437Z,95
2018-09-01T08:58:06.334Z,95
2018-09-01T08:58:12.231Z,95
2018-09-01T09:03:34.735Z,95
2018-09-01T09:09:08.368Z,95
2018-09-01T09:14:33.078Z,95
2018-09-01T09:20:02.305Z,95
2018-09-01T09:25:30.449Z,95
2018-09-01T09:31:00.103Z,95
2018-09-01T09:36:29.834Z,95
2018-09-01T09:41:59.816Z,94
2018-09-01T09:47:28.233Z,94
2018-09-01T09:52:58.227Z,94
2018-09-01T09:58:27.034Z,94
2018-09-01T10:03:55.758Z,94
2018-09-01T10:09:24.497Z,94
2018-09-01T10:14:53.028Z,94
2018-09-01T10:14:54.185Z,94
2018-09-01T10:20:27.752Z,94
2018-09-01T10:25:51.668Z,94
2018-09-01T10:31:25.094Z,94
2018-09-01T10:36:50.125Z,94
2018-09-01T10:42:23.637Z,93
2018-09-01T10:47:48.373Z,93
2018-09-01T10:53:18.384Z,93
2018-09-01T10:58:47.125Z,93
2018-09-01T10:58:47.522Z,93
2018-09-01T11:04:15.652Z,93
2018-09-01T11:09:50.346Z,92
2018-09-01T11:15:15.104Z,92
2018-09-01T11:20:44.898Z,91
2018-09-01T11:26:15.363Z,90
2018-09-01T11:26:19.710Z,90
2018-09-01T11:31:43.544Z,90
2018-09-01T11:37:12.640Z,90
2018-09-01T11:42:43.345Z,90
2018-09-01T11:48:12.362Z,90
2018-09-01T11:48:13.450Z,90
2018-09-01T11:53:45.933Z,90
2018-09-01T11:59:10.752Z,90
2018-09-01T12:04:45.614Z,89
2018-09-01T12:10:14.673Z,89
2018-09-01T12:15:44.683Z,88
2018-09-01T12:21:09.268Z,87
2018-09-01T12:26:39.184Z,87
2018-09-01T12:32:08.131Z,87
2018-09-01T12:37:38.031Z,87
2018-09-01T12:43:11.969Z,86
2018-09-01T12:48:36.914Z,86
2018-09-01T12:54:10.865Z,86
2018-09-01T12:59:34.770Z,85
2018-09-01T13:05:03.733Z,85
2018-09-01T13:10:33.716Z,85
2018-09-01T13:16:08.665Z,84
2018-09-01T13:21:32.590Z,84
2018-09-01T13:27:02.583Z,84
2018-09-01T13:32:32.568Z,83
2018-09-01T13:38:02.532Z,83
2018-09-01T13:43:36.627Z,83
2018-09-01T13:49:01.531Z,83
2018-09-01T13:54:30.912Z,83
2018-09-01T13:59:59.544Z,83
2018-09-01T14:05:33.417Z,83
2018-09-01T14:11:03.350Z,82
2018-09-01T14:16:27.546Z,82
2018-09-01T14:21:56.503Z,82
2018-09-01T14:27:30.596Z,81
2018-09-01T14:32:55.124Z,81
2018-09-01T14:38:29.165Z,80
2018-09-01T14:43:58.124Z,80
2018-09-01T14:49:28.057Z,80
2018-09-01T14:54:53.033Z,80
2018-09-01T15:00:22.220Z,80
2018-09-01T15:05:55.961Z,80
2018-09-01T15:11:19.897Z,80
2018-09-01T15:16:50.097Z,80
2018-09-01T15:22:19.054Z,80
2018-09-01T15:27:52.698Z,80
2018-09-01T15:33:16.847Z,79
2018-09-01T15:38:45.561Z,79
2018-09-01T15:44:14.575Z,79
2018-09-01T15:49:44.808Z,78
2018-09-01T15:55:14.761Z,78
2018-09-01T16:00:43.362Z,78
2018-09-01T16:06:13.291Z,78
2018-09-01T16:11:42.207Z,79
2018-09-01T16:17:11.104Z,79
2018-09-01T16:22:46.041Z,79
2018-09-01T16:28:10.214Z,79
2018-09-01T16:33:39.795Z,79
2018-09-01T16:39:13.795Z,79
2018-09-01T16:44:38.836Z,79
2018-09-01T16:50:08.720Z,78
2018-09-01T16:55:38.400Z,78
2018-09-01T17:01:13.521Z,78
2018-09-01T17:06:37.077Z,79
2018-09-01T17:12:07.478Z,79
2018-09-01T17:17:35.876Z,79
2018-09-01T17:23:06.016Z,79
2018-09-01T17:28:34.870Z,79
2018-09-01T17:34:03.495Z,80
2018-09-01T17:39:38.008Z,80
2018-09-01T17:45:01.840Z,80
2018-09-01T17:50:32.152Z,80
2018-09-01T17:56:01.605Z,81
2018-09-01T18:01:30.109Z,81
2018-09-01T18:06:59.840Z,81
2018-09-01T18:12:28.884Z,81
2018-09-01T18:17:57.338Z,82
2018-09-01T18:23:27.061Z,82
2018-09-01T18:28:55.778Z,82
2018-09-01T18:34:25.775Z,82
2018-09-01T18:39:55.255Z,82
2018-09-01T18:45:29.036Z,82
2018-09-01T18:50:52.706Z,82
2018-09-01T18:56:22.444Z,82
2018-09-01T19:01:52.837Z,83
2018-09-01T19:07:21.826Z,83
2018-09-01T19:12:51.889Z,83
2018-09-01T19:18:23.067Z,83
2018-09-01T19:23:50.131Z,83
2018-09-01T19:29:18.835Z,84
2018-09-01T19:34:52.198Z,84
2018-09-01T19:40:15.805Z,84
2018-09-01T19:45:44.560Z,84
2018-09-01T19:51:14.133Z,84
2018-09-01T19:56:43.647Z,84
2018-09-01T19:56:44.712Z,84
2018-09-01T20:02:13.239Z,84
2018-09-01T20:07:46.886Z,84
2018-09-01T20:13:10.496Z,85
2018-09-01T20:13:11.453Z,85
2018-09-01T20:18:40.202Z,85
2018-09-01T20:24:08.730Z,85
2018-09-01T20:29:42.332Z,85
2018-09-01T20:35:05.917Z,85
2018-09-01T20:40:34.533Z,85
2018-09-01T20:40:38.533Z,85
2018-09-01T20:46:04.101Z,85
2018-09-01T20:46:06.521Z,85
2018-09-01T20:51:37.713Z,85
2018-09-01T20:57:02.297Z,85
2018-09-01T21:02:35.909Z,86
2018-09-01T21:08:00.760Z,85
2018-09-01T21:13:30.056Z,85
2018-09-01T21:18:58.857Z,85
2018-09-01T21:24:28.159Z,85
2018-09-01T21:29:58.011Z,85
2018-09-01T21:35:27.407Z,85
2018-09-01T21:40:56.012Z,85
2018-09-01T21:46:25.541Z,86
2018-09-01T21:51:59.248Z,86
2018-09-01T21:57:23.189Z,86
2018-09-01T22:02:51.418Z,86
2018-09-01T22:08:20.300Z,86
2018-09-01T22:13:54.649Z,86
2018-09-01T22:19:24.250Z,86
2018-09-01T22:24:48.076Z,86
2018-09-01T22:30:16.477Z,86
2018-09-01T22:30:16.925Z,86
2018-09-01T22:35:50.060Z,86
2018-09-01T22:41:13.703Z,87
2018-09-01T22:46:48.718Z,87
2018-09-01T22:52:12.906Z,87
2018-09-01T22:57:41.877Z,87
2018-09-01T23:03:11.140Z,87
2018-09-01T23:08:39.788Z,87
2018-09-01T23:14:09.655Z,87
2018-09-01T23:19:42.960Z,87
2018-09-01T23:25:07.871Z,87
2018-09-01T23:30:37.491Z,87
2018-09-01T23:36:06.842Z,88
2018-09-01T23:41:36.636Z,88
2018-09-01T23:47:06.039Z,88
2018-09-01T23:52:35.592Z,88
2018-09-01T23:58:10.214Z,88
